createdAt,value
2022-12-04T00:01:09.884Z,73.45
2022-12-04T00:03:37.717Z,73.19
2022-12-04T00:06:13.532Z,72.97
2022-12-04T00:08:40.838Z,73.41
2022-12-04T00:11:09.348Z,73.76
2022-12-04T00:13:37.397Z,73.31
2022-12-04T00:16:05.729Z,73.22
2022-12-04T00:18:32.854Z,73.29
2022-12-04T00:20:59.819Z,73.21
2022-12-04T00:23:26.837Z,73.58
2022-12-04T00:26:00.425Z,73.64
2022-12-04T00:28:27.372Z,74.17
2022-12-04T00:30:54.320Z,75.43
2022-12-04T00:33:21.405Z,74.43
2022-12-04T00:35:48.425Z,74.13
2022-12-04T00:38:15.345Z,74.34
2022-12-04T00:40:50.444Z,74.28
2022-12-04T00:43:17.530Z,74.00
2022-12-04T00:45:44.743Z,72.54
2022-12-04T00:48:12.020Z,74.53
2022-12-04T00:50:39.104Z,73.83
2022-12-04T00:53:06.161Z,73.69
2022-12-04T00:55:39.670Z,74.03
2022-12-04T00:58:08.009Z,73.91
2022-12-04T01:00:39.356Z,73.65
2022-12-04T01:03:07.694Z,73.89
2022-12-04T01:05:43.176Z,73.29
2022-12-04T01:08:11.851Z,73.35
2022-12-04T01:10:41.919Z,73.07
2022-12-04T01:13:09.091Z,72.59
2022-12-04T01:15:40.232Z,72.57
2022-12-04T01:18:07.658Z,72.61
2022-12-04T01:20:34.768Z,72.77
2022-12-04T01:23:01.694Z,72.64
2022-12-04T01:25:28.687Z,72.53
2022-12-04T01:27:55.585Z,72.61
2022-12-04T01:30:22.614Z,72.89
2022-12-04T01:32:50.103Z,73.06
2022-12-04T01:35:17.213Z,72.55
2022-12-04T01:37:44.164Z,72.29
2022-12-04T01:40:17.316Z,72.34
2022-12-04T01:42:44.306Z,72.64
2022-12-04T01:45:42.631Z,72.57
2022-12-04T01:48:35.988Z,72.66
2022-12-04T01:51:11.262Z,72.26
2022-12-04T01:53:42.318Z,72.76
2022-12-04T01:56:11.122Z,72.44
2022-12-04T01:58:44.274Z,72.39
2022-12-04T02:01:11.421Z,71.79
2022-12-04T02:03:39.212Z,72.01
2022-12-04T02:06:07.142Z,71.94
2022-12-04T02:08:38.564Z,71.76
2022-12-04T02:11:24.310Z,72.04
2022-12-04T02:14:03.608Z,72.07
2022-12-04T02:16:40.760Z,71.41
2022-12-04T02:19:38.767Z,71.24
2022-12-04T02:22:32.127Z,71.29
2022-12-04T02:25:13.838Z,71.32
2022-12-04T02:27:40.687Z,71.31
2022-12-04T02:30:11.675Z,71.41
2022-12-04T02:32:50.763Z,71.55
2022-12-04T02:35:20.456Z,71.45
2022-12-04T02:37:53.606Z,71.62
2022-12-04T02:40:40.789Z,70.95
2022-12-04T02:43:33.044Z,71.28
2022-12-04T02:46:07.351Z,71.41
2022-12-04T02:48:40.537Z,71.55
2022-12-04T02:51:12.459Z,71.06
2022-12-04T02:53:44.901Z,71.24
2022-12-04T02:56:17.172Z,69.89
2022-12-04T02:58:49.671Z,69.99
2022-12-04T03:01:21.950Z,70.02
2022-12-04T03:03:51.966Z,70.17
2022-12-04T03:06:22.170Z,70.01
2022-12-04T03:08:58.020Z,69.98
2022-12-04T03:11:28.802Z,70.11
2022-12-04T03:14:02.097Z,70.18
2022-12-04T03:16:37.670Z,70.52
2022-12-04T03:19:19.993Z,70.85
2022-12-04T03:21:54.132Z,70.63
2022-12-04T03:24:25.037Z,70.22
2022-12-04T03:27:17.879Z,69.48
2022-12-04T03:29:54.175Z,69.20
2022-12-04T03:32:24.408Z,68.74
2022-12-04T03:34:55.382Z,69.29
2022-12-04T03:37:41.521Z,69.38
2022-12-04T03:40:22.232Z,69.18
2022-12-04T03:42:56.827Z,69.59
2022-12-04T03:45:39.052Z,70.16
2022-12-04T03:48:12.006Z,70.32
2022-12-04T03:50:47.386Z,70.38
2022-12-04T03:53:25.883Z,70.27
2022-12-04T03:56:00.345Z,69.56
2022-12-04T03:58:31.224Z,69.20
2022-12-04T04:01:01.994Z,69.32
2022-12-04T04:03:33.856Z,69.80
2022-12-04T04:06:09.962Z,69.55
2022-12-04T04:08:41.636Z,69.33
2022-12-04T04:11:18.106Z,68.42
2022-12-04T04:14:12.891Z,68.30
2022-12-04T04:17:04.641Z,69.20
2022-12-04T04:20:07.631Z,69.72
2022-12-04T04:22:56.327Z,69.87
2022-12-04T04:25:27.025Z,71.11
2022-12-04T04:27:55.812Z,71.29
2022-12-04T04:30:23.168Z,70.24
2022-12-04T04:32:57.145Z,70.49
2022-12-04T04:35:42.597Z,70.77
2022-12-04T04:38:28.090Z,70.72
2022-12-04T04:41:03.310Z,70.39
2022-12-04T04:43:40.143Z,70.50
2022-12-04T04:46:29.828Z,71.12
2022-12-04T04:49:00.762Z,71.17
2022-12-04T04:51:30.524Z,70.39
2022-12-04T04:54:00.867Z,69.93
2022-12-04T04:56:28.757Z,70.09
2022-12-04T04:58:55.709Z,69.79
2022-12-04T05:01:28.849Z,69.77
2022-12-04T05:03:55.983Z,70.43
2022-12-04T05:06:23.004Z,70.66
2022-12-04T05:08:49.994Z,70.57
2022-12-04T05:11:17.754Z,70.32
2022-12-04T05:13:44.852Z,70.19
2022-12-04T05:16:15.496Z,70.37
2022-12-04T05:19:02.447Z,70.35
2022-12-04T05:21:29.660Z,70.44
2022-12-04T05:23:56.816Z,69.91
2022-12-04T05:26:24.083Z,70.00
2022-12-04T05:28:51.112Z,70.09
2022-12-04T05:31:18.204Z,69.59
2022-12-04T05:33:45.167Z,69.64
2022-12-04T05:36:13.523Z,69.53
2022-12-04T05:38:40.455Z,69.45
2022-12-04T05:41:08.283Z,70.20
2022-12-04T05:43:35.953Z,70.09
2022-12-04T05:46:07.866Z,70.22
2022-12-04T05:48:35.876Z,70.32
2022-12-04T05:51:10.695Z,70.72
2022-12-04T05:53:38.410Z,70.66
2022-12-04T05:56:07.606Z,70.42
2022-12-04T05:58:38.877Z,70.02
2022-12-04T06:01:21.006Z,69.89
2022-12-04T06:03:47.957Z,69.67
2022-12-04T06:06:21.427Z,70.13
2022-12-04T06:08:50.445Z,70.46
2022-12-04T06:11:23.542Z,70.65
2022-12-04T06:13:51.257Z,70.26
2022-12-04T06:16:22.735Z,70.54
2022-12-04T06:18:55.950Z,70.66
2022-12-04T06:21:25.374Z,70.66
2022-12-04T06:23:53.537Z,70.89
2022-12-04T06:26:21.103Z,71.00
2022-12-04T06:28:48.240Z,70.17
2022-12-04T06:31:17.033Z,70.23
2022-12-04T06:33:44.044Z,70.48
2022-12-04T06:36:13.604Z,70.76
2022-12-04T06:38:41.251Z,71.17
2022-12-04T06:41:10.600Z,71.10
2022-12-04T06:43:38.330Z,71.32
2022-12-04T06:46:06.817Z,71.38
2022-12-04T06:48:34.699Z,71.67
2022-12-04T06:51:11.540Z,71.65
2022-12-04T06:53:39.751Z,72.22
2022-12-04T06:56:10.365Z,71.00
2022-12-04T06:58:37.647Z,71.79
2022-12-04T07:01:12.661Z,71.55
2022-12-04T07:03:43.545Z,71.26
2022-12-04T07:06:14.594Z,71.97
2022-12-04T07:08:43.560Z,72.28
2022-12-04T07:11:11.130Z,72.41
2022-12-04T07:13:38.430Z,72.66
2022-12-04T07:16:08.149Z,72.63
2022-12-04T07:18:36.319Z,72.83
2022-12-04T07:21:08.160Z,73.10
2022-12-04T07:23:36.249Z,73.00
2022-12-04T07:26:12.486Z,73.35
2022-12-04T07:28:40.454Z,73.86
2022-12-04T07:31:13.120Z,73.55
2022-12-04T07:33:41.019Z,73.77
2022-12-04T07:36:11.221Z,74.22
2022-12-04T07:38:38.199Z,74.13
2022-12-04T07:41:07.061Z,74.37
2022-12-04T07:43:34.628Z,74.03
2022-12-04T07:46:07.654Z,74.17
2022-12-04T07:48:34.812Z,74.76
2022-12-04T07:51:29.241Z,75.07
2022-12-04T07:54:05.810Z,75.49
2022-12-04T07:56:33.647Z,75.89
2022-12-04T07:59:00.936Z,76.46
2022-12-04T08:01:28.342Z,76.36
2022-12-04T08:03:58.128Z,75.83
2022-12-04T08:06:27.471Z,75.71
2022-12-04T08:08:55.184Z,75.36
2022-12-04T08:11:24.595Z,75.52
2022-12-04T08:14:00.305Z,75.51
2022-12-04T08:16:29.159Z,75.21
2022-12-04T08:18:57.105Z,75.19
2022-12-04T08:21:26.455Z,75.19
2022-12-04T08:23:54.880Z,76.48
2022-12-04T08:26:24.585Z,76.89
2022-12-04T08:28:58.732Z,76.91
2022-12-04T08:31:29.165Z,77.14
2022-12-04T08:33:58.650Z,76.55
2022-12-04T08:36:26.634Z,76.20
2022-12-04T08:38:53.768Z,76.18
2022-12-04T08:41:24.152Z,76.07
2022-12-04T08:43:54.870Z,76.08
2022-12-04T08:46:22.742Z,75.80
2022-12-04T08:48:54.246Z,75.78
2022-12-04T08:51:24.121Z,76.04
2022-12-04T08:53:56.102Z,76.33
2022-12-04T08:56:24.862Z,76.31
2022-12-04T08:58:52.241Z,76.09
2022-12-04T09:01:19.357Z,76.99
2022-12-04T09:03:46.541Z,77.43
2022-12-04T09:06:15.395Z,77.27
2022-12-04T09:08:43.323Z,76.11
2022-12-04T09:11:16.396Z,76.13
2022-12-04T09:13:44.329Z,76.52
2022-12-04T09:16:17.276Z,76.94
2022-12-04T09:18:46.138Z,78.17
2022-12-04T09:21:15.555Z,77.96
2022-12-04T09:23:43.003Z,77.99
2022-12-04T09:26:28.626Z,78.14
2022-12-04T09:28:58.049Z,79.15
2022-12-04T09:31:25.286Z,79.08
2022-12-04T09:33:52.938Z,78.78
2022-12-04T09:36:20.165Z,78.32
2022-12-04T09:38:50.601Z,77.42
2022-12-04T09:41:47.979Z,77.35
2022-12-04T09:44:27.092Z,77.78
2022-12-04T09:47:02.628Z,78.05
2022-12-04T09:49:41.794Z,77.35
2022-12-04T09:52:47.532Z,77.71
2022-12-04T09:55:23.499Z,75.56
2022-12-04T09:58:01.345Z,72.70
2022-12-04T10:00:31.726Z,73.51
2022-12-04T10:03:06.564Z,75.34
2022-12-04T10:05:48.383Z,76.04
2022-12-04T10:08:29.300Z,77.10
2022-12-04T10:11:00.324Z,77.03
2022-12-04T10:13:42.204Z,76.47
2022-12-04T10:16:21.484Z,76.73
2022-12-04T10:18:57.362Z,75.95
2022-12-04T10:21:36.931Z,76.08
2022-12-04T10:24:29.256Z,76.35
2022-12-04T10:27:00.479Z,74.26
2022-12-04T10:29:34.934Z,74.57
2022-12-04T10:32:27.607Z,75.02
2022-12-04T10:34:58.640Z,69.53
2022-12-04T10:37:26.748Z,70.32
2022-12-04T10:40:22.359Z,71.92
2022-12-04T10:43:02.741Z,72.60
2022-12-04T10:45:29.742Z,69.60
2022-12-04T10:47:56.817Z,70.96
2022-12-04T10:50:25.741Z,68.73
2022-12-04T10:52:52.835Z,69.21
2022-12-04T10:55:34.592Z,70.04
2022-12-04T10:58:02.990Z,71.09
2022-12-04T11:00:36.036Z,68.24
2022-12-04T11:03:09.409Z,65.98
2022-12-04T11:05:46.270Z,67.78
2022-12-04T11:08:37.649Z,66.95
2022-12-04T11:11:15.214Z,65.24
2022-12-04T11:13:42.644Z,65.37
2022-12-04T11:16:32.591Z,66.50
2022-12-04T11:18:59.611Z,67.50
2022-12-04T11:21:29.987Z,67.85
2022-12-04T11:23:57.316Z,68.66
2022-12-04T11:26:42.107Z,68.59
2022-12-04T11:29:15.478Z,67.76
2022-12-04T11:31:51.906Z,67.11
2022-12-04T11:34:22.555Z,67.37
2022-12-04T11:36:56.088Z,67.91
2022-12-04T11:39:30.044Z,67.71
2022-12-04T11:42:26.151Z,67.80
2022-12-04T11:44:58.548Z,64.25
2022-12-04T11:47:29.501Z,66.71
2022-12-04T11:50:11.590Z,65.13
2022-12-04T11:53:01.147Z,66.08
2022-12-04T11:55:50.637Z,66.40
2022-12-04T11:58:32.694Z,65.19
2022-12-04T12:01:30.649Z,65.66
2022-12-04T12:04:03.380Z,66.28
2022-12-04T12:06:39.551Z,63.69
2022-12-04T12:09:17.294Z,64.25
2022-12-04T12:11:56.736Z,63.58
2022-12-04T12:14:41.244Z,64.71
2022-12-04T12:17:15.732Z,65.37
2022-12-04T12:20:01.361Z,64.66
2022-12-04T12:22:57.043Z,64.03
2022-12-04T12:25:39.642Z,64.45
2022-12-04T12:28:17.883Z,65.79
2022-12-04T12:31:02.487Z,64.27
2022-12-04T12:33:45.174Z,65.50
2022-12-04T12:36:14.209Z,66.01
2022-12-04T12:38:49.444Z,66.39
2022-12-04T12:41:17.804Z,65.30
2022-12-04T12:43:51.300Z,65.25
2022-12-04T12:46:30.893Z,65.98
2022-12-04T12:49:12.730Z,66.21
2022-12-04T12:51:39.682Z,66.07
2022-12-04T12:54:24.412Z,66.09
2022-12-04T12:56:55.859Z,65.62
2022-12-04T12:59:27.591Z,65.02
2022-12-04T13:02:13.286Z,64.85
2022-12-04T13:04:48.298Z,64.76
2022-12-04T13:07:42.147Z,64.80
2022-12-04T13:10:17.124Z,66.27
2022-12-04T13:12:45.512Z,67.47
2022-12-04T13:15:16.462Z,66.62
2022-12-04T13:17:45.345Z,66.71
2022-12-04T13:20:27.340Z,66.67
2022-12-04T13:23:07.323Z,66.21
2022-12-04T13:25:43.381Z,66.58
2022-12-04T13:28:43.552Z,66.67
2022-12-04T13:31:19.272Z,66.66
2022-12-04T13:34:11.442Z,66.69
2022-12-04T13:37:26.637Z,66.55
2022-12-04T13:40:15.403Z,66.77
2022-12-04T13:42:42.633Z,66.40
2022-12-04T13:45:13.338Z,67.01
2022-12-04T13:47:40.290Z,67.01
2022-12-04T13:50:08.589Z,67.04
2022-12-04T13:52:42.758Z,67.00
2022-12-04T13:55:26.504Z,67.05
2022-12-04T13:58:16.598Z,67.35
2022-12-04T14:00:44.747Z,66.94
2022-12-04T14:03:23.772Z,67.18
2022-12-04T14:05:51.459Z,67.43
2022-12-04T14:08:28.436Z,67.41
2022-12-04T14:11:02.396Z,67.09
2022-12-04T14:13:50.138Z,67.23
2022-12-04T14:16:25.896Z,67.58
2022-12-04T14:18:56.654Z,67.77
2022-12-04T14:21:24.936Z,67.64
2022-12-04T14:23:53.447Z,67.55
2022-12-04T14:26:37.239Z,67.64
2022-12-04T14:29:28.533Z,67.94
2022-12-04T14:31:58.123Z,67.90
2022-12-04T14:34:29.928Z,67.76
2022-12-04T14:36:58.058Z,67.30
2022-12-04T14:39:47.170Z,67.77
2022-12-04T14:42:37.645Z,67.81
2022-12-04T14:45:17.489Z,67.19
2022-12-04T14:47:50.787Z,66.84
2022-12-04T14:50:46.221Z,66.24
2022-12-04T14:53:19.329Z,66.16
2022-12-04T14:55:52.820Z,66.36
2022-12-04T14:58:30.827Z,66.16
2022-12-04T15:01:19.986Z,66.48
2022-12-04T15:03:53.435Z,66.47
2022-12-04T15:06:29.620Z,66.19
2022-12-04T15:09:21.184Z,66.03
2022-12-04T15:12:11.236Z,66.13
2022-12-04T15:14:49.153Z,66.46
2022-12-04T15:17:17.625Z,66.75
2022-12-04T15:19:46.276Z,67.24
2022-12-04T15:22:24.015Z,67.28
2022-12-04T15:24:52.410Z,67.56
2022-12-04T15:27:27.344Z,67.60
2022-12-04T15:29:58.885Z,67.88
2022-12-04T15:32:28.808Z,68.28
2022-12-04T15:35:05.904Z,68.46
2022-12-04T15:37:33.349Z,68.83
2022-12-04T15:40:00.665Z,68.71
2022-12-04T15:42:30.856Z,68.54
2022-12-04T15:45:03.808Z,69.09
2022-12-04T15:47:49.448Z,70.25
2022-12-04T15:50:16.594Z,70.26
2022-12-04T15:52:50.707Z,70.29
2022-12-04T15:55:19.534Z,70.40
2022-12-04T15:57:54.294Z,70.56
2022-12-04T16:00:31.384Z,70.52
2022-12-04T16:02:59.890Z,70.66
2022-12-04T16:05:36.711Z,70.97
2022-12-04T16:08:24.727Z,71.28
2022-12-04T16:11:04.136Z,71.22
2022-12-04T16:13:34.767Z,71.01
2022-12-04T16:16:06.594Z,70.35
2022-12-04T16:18:33.798Z,70.90
2022-12-04T16:21:01.127Z,71.27
2022-12-04T16:23:28.220Z,71.00
2022-12-04T16:25:55.581Z,71.12
2022-12-04T16:28:22.713Z,71.02
2022-12-04T16:30:52.397Z,71.05
2022-12-04T16:33:19.673Z,71.24
2022-12-04T16:35:46.703Z,71.19
2022-12-04T16:38:20.373Z,70.83
2022-12-04T16:40:49.175Z,70.61
2022-12-04T16:43:17.539Z,70.78
2022-12-04T16:45:52.551Z,70.86
2022-12-04T16:48:20.019Z,70.26
2022-12-04T16:50:47.874Z,70.43
2022-12-04T16:53:23.703Z,70.37
2022-12-04T16:55:52.237Z,69.09
2022-12-04T16:58:20.511Z,69.13
2022-12-04T17:00:56.474Z,69.83
2022-12-04T17:03:34.459Z,70.45
2022-12-04T17:06:01.730Z,70.45
2022-12-04T17:08:29.904Z,70.62
2022-12-04T17:10:57.648Z,71.32
2022-12-04T17:13:24.704Z,71.13
2022-12-04T17:15:51.946Z,71.31
2022-12-04T17:18:21.656Z,71.24
2022-12-04T17:20:49.242Z,71.42
2022-12-04T17:23:16.764Z,71.59
2022-12-04T17:25:43.767Z,71.54
2022-12-04T17:28:11.882Z,71.09
2022-12-04T17:30:38.968Z,70.85
2022-12-04T17:33:06.037Z,70.73
2022-12-04T17:35:33.112Z,71.22
2022-12-04T17:38:05.582Z,71.51
2022-12-04T17:40:33.749Z,71.84
2022-12-04T17:43:00.695Z,71.47
2022-12-04T17:45:28.710Z,71.81
2022-12-04T17:47:55.857Z,71.85
2022-12-04T17:50:22.948Z,71.43
2022-12-04T17:52:50.032Z,71.18
2022-12-04T17:55:17.117Z,71.04
2022-12-04T17:57:44.092Z,70.92
2022-12-04T18:00:11.540Z,70.96
2022-12-04T18:02:42.535Z,70.63
2022-12-04T18:05:10.068Z,70.82
2022-12-04T18:07:37.244Z,71.28
2022-12-04T18:10:04.943Z,70.55
2022-12-04T18:12:31.995Z,70.65
2022-12-04T18:14:59.375Z,70.44
2022-12-04T18:17:27.248Z,70.23
2022-12-04T18:19:56.838Z,70.12
2022-12-04T18:22:27.676Z,69.95
2022-12-04T18:24:54.712Z,69.90
2022-12-04T18:27:21.760Z,70.47
2022-12-04T18:29:48.805Z,69.19
2022-12-04T18:32:15.912Z,69.41
2022-12-04T18:34:43.137Z,69.15
2022-12-04T18:37:10.265Z,69.44
2022-12-04T18:39:37.180Z,69.62
2022-12-04T18:42:04.325Z,69.61
2022-12-04T18:44:31.382Z,69.66
2022-12-04T18:46:58.338Z,69.86
2022-12-04T18:49:25.601Z,69.90
2022-12-04T18:51:52.586Z,69.38
2022-12-04T18:54:21.977Z,69.87
2022-12-04T18:56:49.979Z,69.45
2022-12-04T18:59:20.897Z,68.95
2022-12-04T19:01:50.439Z,68.89
2022-12-04T19:04:19.646Z,69.11
2022-12-04T19:06:54.449Z,69.55
2022-12-04T19:09:47.107Z,69.45
2022-12-04T19:12:13.022Z,69.95
2022-12-04T19:14:40.285Z,69.85
2022-12-04T19:17:07.686Z,69.72
2022-12-04T19:19:34.708Z,69.07
2022-12-04T19:22:02.208Z,69.14
2022-12-04T19:24:29.272Z,68.57
2022-12-04T19:26:56.476Z,68.64
2022-12-04T19:29:23.530Z,68.69
2022-12-04T19:31:53.544Z,67.39
2022-12-04T19:34:23.344Z,67.61
2022-12-04T19:36:50.324Z,67.69
2022-12-04T19:39:17.414Z,67.75
2022-12-04T19:41:44.429Z,67.86
2022-12-04T19:44:46.972Z,67.94
2022-12-04T19:46:58.546Z,67.18
2022-12-04T19:49:25.655Z,66.91
2022-12-04T19:51:52.751Z,67.08
2022-12-04T19:54:20.952Z,67.40
2022-12-04T19:56:51.302Z,67.13
2022-12-04T19:59:19.806Z,66.44
2022-12-04T20:01:47.111Z,67.21
2022-12-04T20:04:14.308Z,65.95
2022-12-04T20:06:44.078Z,66.32
2022-12-04T20:09:14.397Z,66.58
2022-12-04T20:11:41.988Z,66.98
2022-12-04T20:14:10.316Z,67.08
2022-12-04T20:16:38.326Z,67.22
2022-12-04T20:19:07.092Z,66.82
2022-12-04T20:21:34.198Z,67.35
2022-12-04T20:24:05.184Z,67.08
2022-12-04T20:26:38.773Z,66.93
2022-12-04T20:29:07.502Z,67.13
2022-12-04T20:31:37.312Z,67.12
2022-12-04T20:34:07.058Z,67.49
2022-12-04T20:36:39.965Z,67.85
2022-12-04T20:39:08.597Z,68.61
2022-12-04T20:41:36.620Z,67.72
2022-12-04T20:44:05.955Z,68.26
2022-12-04T20:46:38.488Z,67.87
2022-12-04T20:49:10.705Z,67.37
2022-12-04T20:51:42.336Z,67.64
2022-12-04T20:54:13.238Z,67.93
2022-12-04T20:56:40.469Z,67.99
2022-12-04T20:59:13.185Z,68.43
2022-12-04T21:01:40.673Z,68.94
2022-12-04T21:04:07.925Z,69.40
2022-12-04T21:06:37.446Z,69.44
2022-12-04T21:09:06.946Z,69.72
2022-12-04T21:11:36.760Z,69.89
2022-12-04T21:14:30.106Z,69.83
2022-12-04T21:16:57.505Z,70.43
2022-12-04T21:19:24.848Z,70.70
2022-12-04T21:21:52.803Z,70.63
2022-12-04T21:24:21.989Z,70.94
2022-12-04T21:26:49.422Z,70.21
2022-12-04T21:29:16.773Z,69.97
2022-12-04T21:31:43.932Z,70.02
2022-12-04T21:34:14.056Z,70.68
2022-12-04T21:36:41.722Z,70.83
2022-12-04T21:39:09.299Z,71.13
2022-12-04T21:41:55.069Z,71.19
2022-12-04T21:44:22.119Z,71.32
2022-12-04T21:46:49.556Z,71.44
2022-12-04T21:49:18.235Z,71.08
2022-12-04T21:51:57.397Z,70.46
2022-12-04T21:54:26.801Z,70.79
2022-12-04T21:56:54.303Z,69.96
2022-12-04T21:59:21.282Z,70.08
2022-12-04T22:01:48.474Z,69.76
2022-12-04T22:04:15.803Z,69.91
2022-12-04T22:06:43.246Z,70.27
2022-12-04T22:09:12.180Z,70.23
2022-12-04T22:11:41.698Z,71.22
2022-12-04T22:14:09.809Z,72.31
2022-12-04T22:16:41.849Z,72.50
2022-12-04T22:19:11.118Z,72.11
2022-12-04T22:21:38.543Z,72.27
2022-12-04T22:24:06.104Z,71.99
2022-12-04T22:26:33.619Z,72.14
2022-12-04T22:29:00.685Z,71.75
2022-12-04T22:31:29.932Z,71.63
2022-12-04T22:33:59.882Z,71.23
2022-12-04T22:36:32.784Z,71.61
2022-12-04T22:39:15.467Z,71.55
2022-12-04T22:41:42.465Z,71.74
2022-12-04T22:44:09.517Z,71.83
2022-12-04T22:46:36.548Z,72.16
2022-12-04T22:49:03.683Z,72.21
2022-12-04T22:51:30.779Z,72.57
2022-12-04T22:53:58.558Z,72.56
2022-12-04T22:56:28.728Z,72.75
2022-12-04T22:58:56.468Z,73.03
2022-12-04T23:01:31.767Z,73.43
2022-12-04T23:03:59.502Z,73.91
2022-12-04T23:06:28.531Z,73.66
2022-12-04T23:09:04.970Z,73.99
2022-12-04T23:11:32.112Z,73.47
2022-12-04T23:14:01.864Z,73.41
2022-12-04T23:16:31.072Z,73.03
2022-12-04T23:18:58.813Z,72.80
2022-12-04T23:21:26.795Z,72.88
2022-12-04T23:23:55.207Z,73.07
2022-12-04T23:26:25.798Z,72.82
2022-12-04T23:28:52.956Z,73.14
2022-12-04T23:31:20.200Z,73.37
2022-12-04T23:33:47.593Z,73.13
2022-12-04T23:36:15.011Z,72.73
2022-12-04T23:38:43.332Z,72.31
2022-12-04T23:41:19.809Z,71.94
2022-12-04T23:43:48.079Z,70.99
2022-12-04T23:46:19.249Z,71.74
2022-12-04T23:48:47.418Z,71.28
2022-12-04T23:51:17.785Z,71.65
2022-12-04T23:53:45.637Z,71.90
2022-12-04T23:56:18.909Z,71.93
2022-12-04T23:58:49.197Z,72.25
